createdAt,value
2022-10-14T08:55:03.070Z,99.30
2022-10-14T08:58:12.857Z,98.70
2022-10-14T09:01:23.210Z,98.40
2022-10-14T09:04:26.167Z,98.20
2022-10-14T09:07:30.364Z,97.10
2022-10-14T09:10:37.363Z,97.40
2022-10-14T09:13:44.822Z,97.50
2022-10-14T09:16:51.920Z,96.40
2022-10-14T09:20:05.163Z,95.70
2022-10-14T09:23:16.911Z,95.90
2022-10-14T09:26:21.197Z,95.50
2022-10-14T09:29:28.837Z,95.10
2022-10-14T09:32:36.328Z,94.60
2022-10-14T09:35:42.693Z,94.70
2022-10-14T09:38:47.197Z,94.10
2022-10-14T09:41:54.159Z,93.70
2022-10-14T10:16:07.024Z,90.40
2022-10-14T10:19:27.011Z,89.00
2022-10-14T10:22:34.134Z,89.50
2022-10-14T10:25:36.985Z,86.80
2022-10-14T10:28:46.836Z,86.00
2022-10-14T10:32:12.044Z,86.30
2022-10-14T10:35:23.182Z,88.20
2022-10-14T10:38:31.742Z,85.50
2022-10-14T10:41:48.541Z,83.20
2022-10-14T10:45:02.125Z,83.20
2022-10-14T10:48:15.710Z,80.60
2022-10-14T10:51:27.687Z,83.50
2022-10-14T10:54:39.433Z,83.60
2022-10-14T10:57:53.879Z,80.40
2022-10-14T11:01:02.761Z,80.60
2022-10-14T11:04:21.831Z,81.40
2022-10-14T11:07:48.767Z,80.20
2022-10-14T11:11:17.504Z,82.10
2022-10-14T11:14:34.607Z,80.00
2022-10-14T11:17:45.489Z,80.30
2022-10-14T11:21:05.253Z,80.80
2022-10-14T11:27:25.018Z,79.20
2022-10-14T11:30:43.320Z,80.50
2022-10-14T11:33:58.168Z,77.00
2022-10-14T11:37:13.658Z,78.60
2022-10-14T11:40:22.711Z,78.00
2022-10-14T11:43:35.632Z,79.60
2022-10-14T11:46:42.896Z,77.90
2022-10-14T11:49:53.013Z,79.80
2022-10-14T11:53:02.391Z,77.30
2022-10-14T11:56:14.775Z,78.70
2022-10-14T11:59:37.766Z,77.80
2022-10-14T12:02:45.914Z,80.30
2022-10-14T12:05:55.050Z,77.70
2022-10-14T12:09:02.588Z,80.40
2022-10-14T12:12:09.744Z,78.50
2022-10-14T12:15:19.629Z,79.30
2022-10-14T12:18:22.809Z,79.50
2022-10-14T12:21:32.957Z,80.40
2022-10-14T12:24:39.888Z,79.20
2022-10-14T12:27:43.282Z,80.60
2022-10-14T12:30:47.340Z,78.90
2022-10-14T12:34:33.085Z,79.90
2022-10-14T12:37:50.312Z,79.70
2022-10-14T12:40:54.819Z,81.40
2022-10-14T12:44:03.236Z,80.40
2022-10-14T12:47:07.001Z,80.60
2022-10-14T12:50:30.253Z,80.10
2022-10-14T12:53:34.926Z,82.80
2022-10-14T12:56:45.794Z,81.80
2022-10-14T12:59:52.957Z,80.20
2022-10-14T13:02:59.995Z,81.30
2022-10-14T13:06:29.665Z,81.90
2022-10-14T13:09:36.713Z,83.20
2022-10-14T13:12:45.447Z,81.90
2022-10-14T13:18:55.844Z,81.50
2022-10-14T13:21:59.136Z,82.00
2022-10-14T13:25:08.036Z,81.00
2022-10-14T13:28:27.175Z,79.90
2022-10-14T13:31:39.339Z,80.10
2022-10-14T13:34:50.437Z,80.80
2022-10-14T13:38:00.542Z,83.80
2022-10-14T13:41:04.745Z,82.10
2022-10-14T13:44:13.192Z,85.60
2022-10-14T13:47:20.662Z,85.80
2022-10-14T13:50:27.494Z,87.40
2022-10-14T13:53:30.400Z,87.90
2022-10-14T13:56:33.819Z,87.80
2022-10-14T13:59:46.905Z,88.80
2022-10-14T14:03:11.460Z,90.50
2022-10-14T14:06:15.853Z,92.50
2022-10-14T14:09:23.804Z,94.70
2022-10-14T14:12:26.850Z,95.90
2022-10-14T14:15:31.419Z,96.60
2022-10-14T14:18:49.364Z,97.10
2022-10-14T14:22:08.244Z,97.40
2022-10-14T14:25:33.076Z,97.20
2022-10-14T14:28:37.825Z,97.50
2022-10-14T14:35:13.089Z,97.80
2022-10-14T14:38:26.244Z,97.80
2022-10-14T14:41:30.701Z,98.30
2022-10-14T14:44:35.275Z,98.50
2022-10-14T14:47:40.829Z,98.80
2022-10-14T14:50:45.702Z,98.70
2022-10-14T14:53:51.530Z,98.40
2022-10-14T14:56:58.587Z,98.40
2022-10-14T15:00:05.307Z,98.30
2022-10-14T15:03:10.649Z,98.00
2022-10-14T15:06:17.496Z,97.80
2022-10-14T15:09:25.487Z,98.60
2022-10-14T15:12:31.056Z,98.70
2022-10-14T15:15:35.174Z,98.80
2022-10-14T15:18:43.355Z,98.90
2022-10-14T15:21:47.663Z,98.80
2022-10-14T15:25:10.672Z,98.70
2022-10-14T15:28:30.115Z,98.90
2022-10-14T15:31:33.705Z,98.90
2022-10-14T15:34:38.062Z,98.80
2022-10-14T15:37:41.120Z,99.10
2022-10-14T15:40:45.073Z,99.00
2022-10-14T15:43:47.908Z,99.30
2022-10-14T15:47:09.259Z,98.90
2022-10-14T15:50:19.683Z,99.20
2022-10-14T15:53:22.549Z,99.10
2022-10-14T15:56:25.406Z,99.10
2022-10-14T15:59:28.338Z,99.30
2022-10-14T16:02:35.114Z,99.30
2022-10-14T16:05:39.959Z,99.30
2022-10-14T16:08:43.203Z,99.40
2022-10-14T16:11:46.056Z,99.30
2022-10-14T16:14:48.946Z,99.40
2022-10-14T16:17:53.065Z,99.20
2022-10-14T16:20:57.581Z,99.40
2022-10-14T16:24:00.769Z,99.50
2022-10-14T16:27:03.746Z,99.60
2022-10-14T16:30:07.988Z,99.70
2022-10-14T16:36:16.100Z,99.60
2022-10-14T16:39:20.188Z,99.50
2022-10-14T16:42:23.281Z,99.60
2022-10-14T16:45:26.139Z,99.40
2022-10-14T16:48:29.278Z,99.30
2022-10-14T16:51:33.458Z,99.40
2022-10-14T16:54:36.331Z,99.40
2022-10-14T16:57:39.163Z,99.50
2022-10-14T17:00:42.105Z,99.50
2022-10-14T17:03:45.261Z,99.40
2022-10-14T17:06:50.147Z,99.50
2022-10-14T17:09:53.058Z,99.30
2022-10-14T17:12:57.418Z,99.30
2022-10-14T17:16:01.955Z,99.50
2022-10-14T17:19:04.888Z,99.50
2022-10-14T17:22:09.130Z,99.10
2022-10-14T17:25:12.173Z,99.00
2022-10-14T17:28:15.549Z,99.40
2022-10-14T17:31:20.165Z,99.30
2022-10-14T17:34:23.363Z,99.40
2022-10-14T17:37:28.317Z,99.50
2022-10-14T17:40:33.727Z,99.40
2022-10-14T17:43:37.422Z,99.30
2022-10-14T17:46:40.520Z,99.50
2022-10-14T17:49:43.392Z,99.20
2022-10-14T17:52:47.590Z,99.80
2022-10-14T17:55:52.792Z,99.50
2022-10-14T17:58:59.851Z,99.50
2022-10-14T18:02:03.669Z,99.50
2022-10-14T18:05:07.611Z,99.20
2022-10-14T18:08:12.197Z,99.40
2022-10-14T18:11:15.110Z,99.60
2022-10-14T18:14:17.974Z,99.50
2022-10-14T18:17:21.221Z,99.70
2022-10-14T18:20:24.570Z,99.90
2022-10-14T18:23:30.708Z,99.90
2022-10-14T18:26:34.649Z,99.80
2022-10-14T18:29:37.581Z,99.80
2022-10-14T18:32:40.677Z,99.70
2022-10-14T18:35:46.477Z,99.80
2022-10-14T18:38:54.620Z,99.70
2022-10-14T18:41:57.555Z,99.70
2022-10-14T18:45:00.403Z,99.80
2022-10-14T18:48:03.255Z,99.90
2022-10-14T18:51:06.669Z,99.90
2022-10-14T18:54:14.346Z,99.90
2022-10-14T18:57:17.928Z,99.90
2022-10-14T19:00:21.020Z,99.90
2022-10-14T19:03:23.983Z,99.90
2022-10-14T19:06:26.952Z,99.90
2022-10-14T19:09:33.810Z,99.90
2022-10-14T19:12:42.447Z,99.90
2022-10-14T19:15:51.443Z,99.90
2022-10-14T19:18:58.187Z,99.90
2022-10-14T19:22:01.046Z,99.90
2022-10-14T19:25:05.800Z,99.90
2022-10-14T19:28:09.571Z,99.90
2022-10-14T19:31:14.060Z,99.90
2022-10-14T19:34:17.787Z,99.90
2022-10-14T19:37:20.820Z,99.90
2022-10-14T19:40:25.323Z,99.90
2022-10-14T19:43:29.029Z,99.90
2022-10-14T19:46:32.071Z,99.90
2022-10-14T19:49:35.050Z,99.90
2022-10-14T19:52:37.949Z,99.90
2022-10-14T19:55:42.420Z,99.90
2022-10-14T19:58:45.929Z,99.90
2022-10-14T20:01:49.134Z,99.90
2022-10-14T20:04:52.189Z,99.90
2022-10-14T20:07:55.104Z,99.90
2022-10-14T20:11:02.645Z,99.90
2022-10-14T20:14:05.608Z,99.90
2022-10-14T20:17:08.577Z,99.90
2022-10-14T20:20:12.325Z,99.90
2022-10-14T20:23:15.238Z,99.90
2022-10-14T20:26:21.755Z,99.90
2022-10-14T20:29:24.720Z,99.90
2022-10-14T20:32:27.580Z,99.90
2022-10-14T20:35:30.470Z,99.90
2022-10-14T20:38:33.638Z,99.90
2022-10-14T20:41:37.876Z,99.90
2022-10-14T20:44:40.813Z,99.90
2022-10-14T20:47:43.707Z,99.90
2022-10-14T20:50:46.548Z,99.90
2022-10-14T20:53:49.574Z,99.90
2022-10-14T20:56:53.775Z,99.90
2022-10-14T20:59:56.628Z,99.90
2022-10-14T21:02:59.597Z,99.90
2022-10-14T21:06:04.028Z,99.90
2022-10-14T21:09:07.348Z,99.90
2022-10-14T21:12:11.803Z,99.90
2022-10-14T21:15:14.651Z,99.90
2022-10-14T21:18:17.483Z,99.90
2022-10-14T21:21:20.356Z,99.90
2022-10-14T21:24:25.373Z,99.90
2022-10-14T21:27:29.581Z,99.90
2022-10-14T21:30:32.480Z,99.90
2022-10-14T21:33:35.895Z,99.90
2022-10-14T21:36:39.976Z,99.90
2022-10-14T21:39:42.825Z,99.90
2022-10-14T21:42:47.069Z,99.90
2022-10-14T21:45:50.051Z,99.90
2022-10-14T21:48:56.949Z,99.90
2022-10-14T21:51:59.793Z,99.90
2022-10-14T21:55:02.784Z,99.90
2022-10-14T21:58:06.982Z,99.90
2022-10-14T22:01:11.482Z,99.90
2022-10-14T22:04:14.368Z,99.90
2022-10-14T22:07:17.243Z,99.90
2022-10-14T22:10:37.614Z,99.90
2022-10-14T22:13:42.372Z,99.90
2022-10-14T22:16:45.848Z,99.90
2022-10-14T22:19:48.687Z,99.90
2022-10-14T22:22:51.576Z,99.90
2022-10-14T22:25:54.594Z,99.90
2022-10-14T22:29:04.409Z,99.90
2022-10-14T22:32:07.765Z,99.90
2022-10-14T22:35:11.290Z,99.90
2022-10-14T22:38:14.220Z,99.90
2022-10-14T22:41:19.068Z,99.90
2022-10-14T22:44:23.239Z,99.90
2022-10-14T22:47:26.394Z,99.90
2022-10-14T22:50:29.381Z,99.90
2022-10-14T22:53:32.718Z,99.90
2022-10-14T22:56:35.709Z,99.90
2022-10-14T22:59:40.094Z,99.90
2022-10-14T23:02:42.997Z,99.90
2022-10-14T23:05:45.921Z,99.90
2022-10-14T23:08:48.832Z,99.90
2022-10-14T23:11:51.723Z,99.90
2022-10-14T23:14:56.020Z,99.90
2022-10-14T23:17:58.977Z,99.90
2022-10-14T23:21:09.579Z,99.90
2022-10-14T23:24:12.919Z,99.90
2022-10-14T23:27:15.839Z,99.90
2022-10-14T23:30:20.158Z,99.90
2022-10-14T23:33:23.073Z,99.90
2022-10-14T23:36:26.317Z,99.90
2022-10-14T23:39:29.300Z,99.90
2022-10-14T23:42:32.170Z,99.90
2022-10-14T23:45:36.646Z,99.90
2022-10-14T23:48:39.496Z,99.90
2022-10-14T23:51:42.568Z,99.90
2022-10-14T23:54:45.546Z,99.90
2022-10-14T23:57:48.451Z,99.90
